createdAt,value
2017-08-26T00:00:43.882Z,1013.73
2017-08-26T00:01:43.904Z,1013.67
2017-08-26T00:02:43.928Z,1013.67
2017-08-26T00:03:43.948Z,1013.66
2017-08-26T00:04:43.975Z,1013.67
2017-08-26T00:05:43.997Z,1013.68
2017-08-26T00:06:44.022Z,1013.69
2017-08-26T00:07:44.044Z,1013.72
2017-08-26T00:08:44.067Z,1013.68
2017-08-26T00:09:44.088Z,1013.71
2017-08-26T00:10:44.111Z,1013.66
2017-08-26T00:11:44.136Z,1013.61
2017-08-26T00:12:44.154Z,1013.6
2017-08-26T00:14:44.204Z,1013.55
2017-08-26T00:15:44.227Z,1013.53
2017-08-26T00:16:44.254Z,1013.54
2017-08-26T00:17:44.274Z,1013.55
2017-08-26T00:18:44.296Z,1013.58
2017-08-26T00:19:44.320Z,1013.54
2017-08-26T00:20:44.343Z,1013.6
2017-08-26T00:21:44.365Z,1013.58
2017-08-26T00:22:44.390Z,1013.57
2017-08-26T00:23:44.413Z,1013.54
2017-08-26T00:24:44.435Z,1013.58
2017-08-26T00:25:44.459Z,1013.57
2017-08-26T00:26:44.480Z,1013.54
2017-08-26T00:27:44.505Z,1013.57
2017-08-26T00:28:44.527Z,1013.57
2017-08-26T00:30:44.574Z,1013.53
2017-08-26T00:31:44.593Z,1013.52
2017-08-26T00:32:44.619Z,1013.52
2017-08-26T00:33:44.643Z,1013.51
2017-08-26T00:34:44.667Z,1013.56
2017-08-26T00:35:44.689Z,1013.49
2017-08-26T00:36:44.711Z,1013.57
2017-08-26T00:37:44.735Z,1013.52
2017-08-26T00:38:44.756Z,1013.55
2017-08-26T00:39:44.782Z,1013.57
2017-08-26T00:40:44.805Z,1013.57
2017-08-26T00:41:44.826Z,1013.56
2017-08-26T00:42:44.850Z,1013.52
2017-08-26T00:43:44.873Z,1013.53
2017-08-26T00:45:44.919Z,1013.56
2017-08-26T00:46:44.942Z,1013.54
2017-08-26T00:47:44.962Z,1013.54
2017-08-26T00:48:44.987Z,1013.57
2017-08-26T00:49:45.011Z,1013.58
2017-08-26T00:50:45.037Z,1013.53
2017-08-26T00:51:45.052Z,1013.57
2017-08-26T00:52:45.080Z,1013.56
2017-08-26T00:53:45.108Z,1013.59
2017-08-26T00:54:45.125Z,1013.57
2017-08-26T00:55:45.148Z,1013.57
2017-08-26T00:56:45.171Z,1013.6
2017-08-26T00:57:45.193Z,1013.62
2017-08-26T00:58:45.213Z,1013.64
2017-08-26T00:59:45.239Z,1013.59
2017-08-26T01:00:45.261Z,1013.65
2017-08-26T01:01:45.285Z,1013.67
2017-08-26T01:02:45.309Z,1013.69
2017-08-26T01:03:45.330Z,1013.7
2017-08-26T01:04:45.356Z,1013.71
2017-08-26T01:05:45.381Z,1013.66
2017-08-26T01:06:45.400Z,1013.73
2017-08-26T01:07:45.425Z,1013.71
2017-08-26T01:08:45.441Z,1013.69
2017-08-26T01:09:45.467Z,1013.65
2017-08-26T01:10:45.488Z,1013.67
2017-08-26T01:11:45.518Z,1013.71
2017-08-26T01:12:45.537Z,1013.69
2017-08-26T01:13:45.564Z,1013.68
2017-08-26T01:14:45.583Z,1013.69
2017-08-26T01:15:45.608Z,1013.7
2017-08-26T01:17:45.654Z,1013.69
2017-08-26T01:18:45.674Z,1013.69
2017-08-26T01:19:45.696Z,1013.7
2017-08-26T01:20:45.721Z,1013.72
2017-08-26T01:21:45.742Z,1013.7
2017-08-26T01:22:45.765Z,1013.69
2017-08-26T01:23:45.785Z,1013.64
2017-08-26T01:24:45.807Z,1013.68
2017-08-26T01:25:45.836Z,1013.63
2017-08-26T01:26:45.856Z,1013.64
2017-08-26T01:27:45.879Z,1013.64
2017-08-26T01:28:45.901Z,1013.61
2017-08-26T01:29:45.921Z,1013.65
2017-08-26T01:30:45.948Z,1013.62
2017-08-26T01:31:45.972Z,1013.66
2017-08-26T01:33:46.013Z,1013.69
2017-08-26T01:34:46.037Z,1013.68
2017-08-26T01:35:46.064Z,1013.68
2017-08-26T01:36:46.080Z,1013.69
2017-08-26T01:37:46.106Z,1013.69
2017-08-26T01:38:46.128Z,1013.67
2017-08-26T01:39:46.151Z,1013.7
2017-08-26T01:40:46.171Z,1013.72
2017-08-26T01:41:46.193Z,1013.65
2017-08-26T01:42:46.218Z,1013.65
2017-08-26T01:43:46.240Z,1013.69
2017-08-26T01:44:46.265Z,1013.66
2017-08-26T01:45:46.289Z,1013.66
2017-08-26T01:46:46.311Z,1013.68
2017-08-26T01:47:46.333Z,1013.62
2017-08-26T01:49:46.377Z,1013.6
2017-08-26T01:50:46.400Z,1013.62
2017-08-26T01:51:46.423Z,1013.59
2017-08-26T01:52:46.443Z,1013.65
2017-08-26T01:53:46.472Z,1013.63
2017-08-26T01:54:46.490Z,1013.6
2017-08-26T01:55:46.515Z,1013.62
2017-08-26T01:56:46.537Z,1013.63
2017-08-26T01:57:46.560Z,1013.65
2017-08-26T01:58:46.578Z,1013.65
2017-08-26T01:59:46.604Z,1013.68
2017-08-26T02:00:46.627Z,1013.69
2017-08-26T02:01:46.652Z,1013.72
2017-08-26T02:02:46.670Z,1013.74
2017-08-26T02:03:46.694Z,1013.69
2017-08-26T02:05:46.737Z,1013.72
2017-08-26T02:06:46.762Z,1013.69
2017-08-26T02:07:46.780Z,1013.67
2017-08-26T02:08:46.810Z,1013.68
2017-08-26T02:09:46.832Z,1013.69
2017-08-26T02:10:46.852Z,1013.69
2017-08-26T02:11:46.875Z,1013.7
2017-08-26T02:12:46.897Z,1013.71
2017-08-26T02:13:46.919Z,1013.67
2017-08-26T02:14:46.942Z,1013.71
2017-08-26T02:15:46.965Z,1013.69
2017-08-26T02:16:46.988Z,1013.64
2017-08-26T02:17:47.011Z,1013.63
2017-08-26T02:18:47.034Z,1013.64
2017-08-26T02:20:47.081Z,1013.65
2017-08-26T02:21:47.101Z,1013.65
2017-08-26T02:22:47.125Z,1013.68
2017-08-26T02:23:47.149Z,1013.63
2017-08-26T02:24:47.165Z,1013.65
2017-08-26T02:25:47.193Z,1013.65
2017-08-26T02:26:47.222Z,1013.64
2017-08-26T02:27:47.236Z,1013.66
2017-08-26T02:28:47.260Z,1013.64
2017-08-26T02:29:47.280Z,1013.65
2017-08-26T02:30:47.304Z,1013.68
2017-08-26T02:31:47.321Z,1013.69
2017-08-26T02:32:47.350Z,1013.67
2017-08-26T02:33:47.373Z,1013.68
2017-08-26T02:34:47.394Z,1013.67
2017-08-26T02:35:47.417Z,1013.68
2017-08-26T02:36:47.434Z,1013.64
2017-08-26T02:37:47.460Z,1013.64
2017-08-26T02:38:47.483Z,1013.67
2017-08-26T02:39:47.506Z,1013.68
2017-08-26T02:40:47.528Z,1013.71
2017-08-26T02:41:47.554Z,1013.69
2017-08-26T02:42:47.569Z,1013.66
2017-08-26T02:43:47.595Z,1013.67
2017-08-26T02:44:47.615Z,1013.69
2017-08-26T02:45:47.640Z,1013.67
2017-08-26T02:46:47.663Z,1013.67
2017-08-26T02:47:47.684Z,1013.66
2017-08-26T02:48:47.703Z,1013.68
2017-08-26T02:49:47.730Z,1013.66
2017-08-26T02:50:47.752Z,1013.67
2017-08-26T02:52:47.793Z,1013.66
2017-08-26T02:53:47.818Z,1013.66
2017-08-26T02:54:47.839Z,1013.65
2017-08-26T02:55:47.869Z,1013.68
2017-08-26T02:56:47.885Z,1013.65
2017-08-26T02:57:47.906Z,1013.66
2017-08-26T02:58:47.930Z,1013.6
2017-08-26T02:59:47.949Z,1013.59
2017-08-26T03:00:47.976Z,1013.6
2017-08-26T03:01:47.995Z,1013.56
2017-08-26T03:02:48.021Z,1013.53
2017-08-26T03:03:48.042Z,1013.46
2017-08-26T03:04:48.066Z,1013.52
2017-08-26T03:05:48.088Z,1013.52
2017-08-26T03:06:48.111Z,1013.5
2017-08-26T03:08:48.154Z,1013.49
2017-08-26T03:09:48.179Z,1013.46
2017-08-26T03:10:48.196Z,1013.46
2017-08-26T03:11:48.222Z,1013.44
2017-08-26T03:12:48.244Z,1013.48
2017-08-26T03:13:48.267Z,1013.46
2017-08-26T03:14:48.292Z,1013.44
2017-08-26T03:15:48.309Z,1013.42
2017-08-26T03:16:48.332Z,1013.41
2017-08-26T03:17:48.352Z,1013.38
2017-08-26T03:18:48.378Z,1013.4
2017-08-26T03:19:48.404Z,1013.38
2017-08-26T03:20:48.419Z,1013.41
2017-08-26T03:21:48.448Z,1013.44
2017-08-26T03:22:48.463Z,1013.42
2017-08-26T03:24:48.509Z,1013.43
2017-08-26T03:25:48.534Z,1013.4
2017-08-26T03:26:48.560Z,1013.38
2017-08-26T03:27:48.578Z,1013.38
2017-08-26T03:28:48.603Z,1013.4
2017-08-26T03:29:48.622Z,1013.43
2017-08-26T03:30:48.646Z,1013.42
2017-08-26T03:31:48.668Z,1013.44
2017-08-26T03:32:48.689Z,1013.44
2017-08-26T03:33:48.713Z,1013.41
2017-08-26T03:34:48.735Z,1013.41
2017-08-26T03:35:48.755Z,1013.42
2017-08-26T03:36:48.777Z,1013.43
2017-08-26T03:37:48.801Z,1013.42
2017-08-26T03:38:48.823Z,1013.44
2017-08-26T03:40:48.868Z,1013.43
2017-08-26T03:41:48.891Z,1013.43
2017-08-26T03:42:48.914Z,1013.45
2017-08-26T03:43:48.934Z,1013.46
2017-08-26T03:44:48.959Z,1013.51
2017-08-26T03:45:48.978Z,1013.53
2017-08-26T03:46:49.001Z,1013.55
2017-08-26T03:47:49.023Z,1013.52
2017-08-26T03:48:49.049Z,1013.53
2017-08-26T03:49:49.066Z,1013.52
2017-08-26T03:50:49.093Z,1013.5
2017-08-26T03:51:49.115Z,1013.53
2017-08-26T03:52:49.136Z,1013.51
2017-08-26T03:53:49.158Z,1013.5
2017-08-26T03:55:49.201Z,1013.56
2017-08-26T03:56:49.223Z,1013.53
2017-08-26T03:57:49.247Z,1013.5
2017-08-26T03:58:49.265Z,1013.51
2017-08-26T03:59:49.292Z,1013.5
2017-08-26T04:00:49.313Z,1013.51
2017-08-26T04:01:49.332Z,1013.52
2017-08-26T04:02:49.358Z,1013.53
2017-08-26T04:03:49.381Z,1013.52
2017-08-26T04:04:49.404Z,1013.54
2017-08-26T04:05:49.423Z,1013.54
2017-08-26T04:06:49.450Z,1013.59
2017-08-26T04:07:49.466Z,1013.6
2017-08-26T04:08:49.491Z,1013.64
2017-08-26T04:09:49.516Z,1013.63
2017-08-26T04:10:49.536Z,1013.62
2017-08-26T04:11:49.558Z,1013.66
2017-08-26T04:12:49.581Z,1013.64
2017-08-26T04:13:49.605Z,1013.65
2017-08-26T04:14:49.626Z,1013.63
2017-08-26T04:15:49.647Z,1013.64
2017-08-26T04:16:49.670Z,1013.65
2017-08-26T04:17:49.691Z,1013.62
2017-08-26T04:18:49.716Z,1013.64
2017-08-26T04:19:49.739Z,1013.6
2017-08-26T04:20:49.762Z,1013.63
2017-08-26T04:21:49.782Z,1013.63
2017-08-26T04:22:50.103Z,1013.63
2017-08-26T04:23:49.825Z,1013.66
2017-08-26T04:24:49.849Z,1013.64
2017-08-26T04:25:49.867Z,1013.61
2017-08-26T04:27:49.916Z,1013.64
2017-08-26T04:28:49.939Z,1013.64
2017-08-26T04:29:49.959Z,1013.64
2017-08-26T04:30:49.981Z,1013.63
2017-08-26T04:31:50.003Z,1013.59
2017-08-26T04:32:50.034Z,1013.63
2017-08-26T04:33:50.049Z,1013.58
2017-08-26T04:34:50.069Z,1013.55
2017-08-26T04:35:50.095Z,1013.57
2017-08-26T04:36:50.116Z,1013.53
2017-08-26T04:37:50.139Z,1013.5
2017-08-26T04:38:50.158Z,1013.43
2017-08-26T04:39:50.184Z,1013.45
2017-08-26T04:40:50.204Z,1013.41
2017-08-26T04:41:50.232Z,1013.45
2017-08-26T04:43:50.275Z,1013.44
2017-08-26T04:44:50.294Z,1013.45
2017-08-26T04:45:50.320Z,1013.46
2017-08-26T04:46:50.342Z,1013.43
2017-08-26T04:47:50.363Z,1013.45
2017-08-26T04:48:50.386Z,1013.45
2017-08-26T04:49:50.405Z,1013.43
2017-08-26T04:50:50.429Z,1013.36
2017-08-26T04:51:50.452Z,1013.36
2017-08-26T04:52:50.476Z,1013.35
2017-08-26T04:53:50.496Z,1013.39
2017-08-26T04:54:50.523Z,1013.36
2017-08-26T04:55:50.543Z,1013.4
2017-08-26T04:56:50.573Z,1013.45
2017-08-26T04:57:50.594Z,1013.49
2017-08-26T04:59:50.638Z,1013.55
2017-08-26T05:00:50.664Z,1013.57
2017-08-26T05:01:50.689Z,1013.61
2017-08-26T05:02:50.712Z,1013.63
2017-08-26T05:03:50.735Z,1013.62
2017-08-26T05:04:50.763Z,1013.55
2017-08-26T05:05:50.782Z,1013.57
2017-08-26T05:06:50.812Z,1013.55
2017-08-26T05:07:50.834Z,1013.51
2017-08-26T05:08:50.860Z,1013.51
2017-08-26T05:09:50.883Z,1013.46
2017-08-26T05:10:50.922Z,1013.46
2017-08-26T05:11:50.932Z,1013.47
2017-08-26T05:12:50.954Z,1013.45
2017-08-26T05:13:50.982Z,1013.47
2017-08-26T05:15:51.028Z,1013.43
2017-08-26T05:16:51.051Z,1013.44
2017-08-26T05:17:51.076Z,1013.48
2017-08-26T05:18:51.104Z,1013.46
2017-08-26T05:19:51.126Z,1013.46
2017-08-26T05:20:51.150Z,1013.44
2017-08-26T05:21:51.171Z,1013.48
2017-08-26T05:22:51.202Z,1013.5
2017-08-26T05:23:51.247Z,1013.48
2017-08-26T05:24:51.247Z,1013.49
2017-08-26T05:25:51.269Z,1013.49
2017-08-26T05:26:51.294Z,1013.5
2017-08-26T05:27:51.321Z,1013.53
2017-08-26T05:28:51.342Z,1013.55
2017-08-26T05:30:51.391Z,1013.56
2017-08-26T05:31:51.411Z,1013.58
2017-08-26T05:32:51.441Z,1013.6
2017-08-26T05:33:51.461Z,1013.57
2017-08-26T05:34:51.489Z,1013.58
2017-08-26T05:35:51.512Z,1013.57
2017-08-26T05:36:51.533Z,1013.6
2017-08-26T05:37:51.566Z,1013.58
2017-08-26T05:38:51.586Z,1013.6
2017-08-26T05:39:51.611Z,1013.66
2017-08-26T05:40:51.633Z,1013.58
2017-08-26T05:41:51.658Z,1013.53
2017-08-26T05:42:51.681Z,1013.51
2017-08-26T05:43:51.704Z,1013.56
2017-08-26T05:44:51.730Z,1013.55
2017-08-26T05:45:51.754Z,1013.67
2017-08-26T05:46:51.777Z,1013.64
2017-08-26T05:47:51.802Z,1013.61
2017-08-26T05:48:51.827Z,1013.66
2017-08-26T05:49:51.846Z,1013.66
2017-08-26T05:50:51.875Z,1013.85
2017-08-26T05:51:51.899Z,1013.8
2017-08-26T05:52:51.924Z,1013.71
2017-08-26T05:53:51.946Z,1013.94
2017-08-26T05:54:51.971Z,1013.92
2017-08-26T05:55:51.997Z,1013.73
2017-08-26T05:56:52.024Z,1013.76
2017-08-26T05:57:52.047Z,1013.65
2017-08-26T05:58:52.071Z,1013.94
2017-08-26T05:59:52.096Z,1013.66
2017-08-26T06:00:52.123Z,1013.91
2017-08-26T06:02:52.168Z,1013.74
2017-08-26T06:03:52.197Z,1013.74
2017-08-26T06:04:52.221Z,1014.1
2017-08-26T06:05:52.248Z,1014.09
2017-08-26T06:06:52.269Z,1014.08
2017-08-26T06:07:52.300Z,1014.08
2017-08-26T06:08:52.323Z,1014.14
2017-08-26T06:09:52.351Z,1014.17
2017-08-26T06:10:52.384Z,1014.17
2017-08-26T06:11:52.402Z,1013.93
2017-08-26T06:12:52.428Z,1013.63
2017-08-26T06:13:52.461Z,1014.26
2017-08-26T06:14:52.480Z,1014.25
2017-08-26T06:15:52.512Z,1014.34
2017-08-26T06:16:52.534Z,1014.34
2017-08-26T06:18:52.592Z,1014.32
2017-08-26T06:19:52.616Z,1014.33
2017-08-26T06:20:52.649Z,1014.31
2017-08-26T06:21:52.674Z,1014.3
2017-08-26T06:22:52.705Z,1014.29
2017-08-26T06:23:52.733Z,1014.34
2017-08-26T06:24:52.760Z,1014.36
2017-08-26T06:25:52.786Z,1014.28
2017-08-26T06:26:52.817Z,1014.36
2017-08-26T06:27:52.846Z,1014.4
2017-08-26T06:28:52.874Z,1014.13
2017-08-26T06:29:52.902Z,1014.27
2017-08-26T06:30:52.935Z,1014.28
2017-08-26T06:31:52.964Z,1014.26
2017-08-26T06:32:52.992Z,1014.16
2017-08-26T06:34:53.052Z,1014.24
2017-08-26T06:35:53.080Z,1014.03
2017-08-26T06:36:53.112Z,1014.36
2017-08-26T06:37:53.141Z,1014.36
2017-08-26T06:38:53.171Z,1014.32
2017-08-26T06:39:53.201Z,1014.3
2017-08-26T06:40:53.224Z,1014.17
2017-08-26T06:41:53.258Z,1014.3
2017-08-26T06:42:53.287Z,1014.17
2017-08-26T06:43:53.317Z,1014.16
2017-08-26T06:44:53.348Z,1014.15
2017-08-26T06:45:53.379Z,1014.07
2017-08-26T06:46:53.409Z,1014
2017-08-26T06:47:53.440Z,1014
2017-08-26T06:48:53.465Z,1014.02
2017-08-26T06:50:53.529Z,1013.97
2017-08-26T06:51:53.560Z,1014.02
2017-08-26T06:52:53.586Z,1014.03
2017-08-26T06:53:53.620Z,1014.02
2017-08-26T06:54:53.653Z,1014.17
2017-08-26T06:55:53.684Z,1014.15
2017-08-26T06:56:53.714Z,1014.18
2017-08-26T06:57:53.743Z,1014.26
2017-08-26T06:58:53.776Z,1014.23
2017-08-26T06:59:53.804Z,1014.2
2017-08-26T07:00:53.839Z,1014.19
2017-08-26T07:01:53.866Z,1014.2
2017-08-26T07:02:53.903Z,1014.19
2017-08-26T07:03:53.931Z,1014.15
2017-08-26T07:05:53.997Z,1013.94
2017-08-26T07:06:54.027Z,1014.03
2017-08-26T07:07:54.067Z,1014.04
2017-08-26T07:08:54.090Z,1014.06
2017-08-26T07:09:54.126Z,1014.04
2017-08-26T07:10:54.156Z,1014.12
2017-08-26T07:11:54.189Z,1014.05
2017-08-26T07:12:54.219Z,1014.01
2017-08-26T07:13:54.250Z,1013.93
2017-08-26T07:14:54.284Z,1013.94
2017-08-26T07:15:54.319Z,1013.56
2017-08-26T07:16:54.350Z,1013.53
2017-08-26T07:17:54.379Z,1013.52
2017-08-26T07:18:54.415Z,1013.78
2017-08-26T07:19:54.445Z,1013.67
2017-08-26T07:20:54.477Z,1013.62
2017-08-26T07:21:54.510Z,1013.82
2017-08-26T07:22:54.540Z,1013.79
2017-08-26T07:23:54.570Z,1013.52
2017-08-26T07:24:54.599Z,1013.49
2017-08-26T07:25:54.631Z,1013.42
2017-08-26T07:26:54.665Z,1013.38
2017-08-26T07:27:54.692Z,1013.39
2017-08-26T07:28:54.727Z,1013.41
2017-08-26T07:29:54.763Z,1013.38
2017-08-26T07:30:54.782Z,1013.38
2017-08-26T07:31:54.810Z,1013.4
2017-08-26T07:32:54.844Z,1013.4
2017-08-26T07:33:54.872Z,1013.39
2017-08-26T07:34:54.900Z,1013.39
2017-08-26T07:35:54.926Z,1013.44
2017-08-26T07:37:54.987Z,1013.55
2017-08-26T07:38:55.016Z,1013.62
2017-08-26T07:39:55.047Z,1013.63
2017-08-26T07:40:55.073Z,1013.64
2017-08-26T07:41:55.107Z,1013.66
2017-08-26T07:42:55.131Z,1013.67
2017-08-26T07:43:55.157Z,1013.71
2017-08-26T07:44:55.188Z,1013.74
2017-08-26T07:45:55.218Z,1013.7
2017-08-26T07:46:55.246Z,1013.78
2017-08-26T07:47:55.276Z,1013.73
2017-08-26T07:48:55.302Z,1013.59
2017-08-26T07:49:55.334Z,1013.56
2017-08-26T07:50:55.363Z,1013.72
2017-08-26T07:51:55.394Z,1013.64
2017-08-26T07:53:55.449Z,1013.46
2017-08-26T07:54:55.483Z,1013.42
2017-08-26T07:55:55.508Z,1013.43
2017-08-26T07:56:55.538Z,1013.49
2017-08-26T07:57:55.567Z,1013.44
2017-08-26T07:58:55.598Z,1013.48
2017-08-26T07:59:55.622Z,1013.49
2017-08-26T08:00:55.655Z,1013.38
2017-08-26T08:01:55.680Z,1013.39
2017-08-26T08:02:55.710Z,1013.38
2017-08-26T08:03:55.742Z,1013.42
2017-08-26T08:04:55.772Z,1013.4
2017-08-26T08:05:55.798Z,1013.41
2017-08-26T08:06:55.828Z,1013.41
2017-08-26T08:07:55.854Z,1013.4
2017-08-26T08:09:55.916Z,1013.42
2017-08-26T08:10:55.945Z,1013.48
2017-08-26T08:11:55.980Z,1013.46
2017-08-26T08:12:56.002Z,1013.51
2017-08-26T08:13:56.032Z,1013.51
2017-08-26T08:14:56.059Z,1013.49
2017-08-26T08:15:56.085Z,1013.48
2017-08-26T08:16:56.119Z,1013.47
2017-08-26T08:17:56.144Z,1013.43
2017-08-26T08:18:56.174Z,1013.38
2017-08-26T08:19:56.200Z,1013.42
2017-08-26T08:20:56.224Z,1013.4
2017-08-26T08:21:56.258Z,1013.42
2017-08-26T08:22:56.284Z,1013.43
2017-08-26T08:23:56.310Z,1013.44
2017-08-26T08:25:56.367Z,1013.45
2017-08-26T08:26:56.394Z,1013.52
2017-08-26T08:27:56.421Z,1013.57
2017-08-26T08:28:56.449Z,1013.56
2017-08-26T08:29:56.475Z,1013.55
2017-08-26T08:30:56.502Z,1013.58
2017-08-26T08:31:56.525Z,1013.53
2017-08-26T08:32:56.559Z,1013.55
2017-08-26T08:33:56.581Z,1013.55
2017-08-26T08:34:56.610Z,1013.57
2017-08-26T08:35:56.639Z,1013.56
2017-08-26T08:36:56.666Z,1013.56
2017-08-26T08:37:56.695Z,1013.52
2017-08-26T08:38:56.715Z,1013.54
2017-08-26T08:40:56.773Z,1013.52
2017-08-26T08:41:56.798Z,1013.5
2017-08-26T08:42:56.829Z,1013.5
2017-08-26T08:43:56.854Z,1013.5
2017-08-26T08:44:56.881Z,1013.47
2017-08-26T08:45:56.906Z,1013.45
2017-08-26T08:46:56.931Z,1013.43
2017-08-26T08:47:56.961Z,1013.39
2017-08-26T08:48:56.988Z,1013.35
2017-08-26T08:49:57.017Z,1013.33
2017-08-26T08:50:57.041Z,1013.32
2017-08-26T08:51:57.066Z,1013.29
2017-08-26T08:52:57.094Z,1013.28
2017-08-26T08:53:57.121Z,1013.23
2017-08-26T08:54:57.151Z,1013.26
2017-08-26T08:55:57.173Z,1013.26
2017-08-26T08:56:57.199Z,1013.25
2017-08-26T08:57:57.226Z,1013.3
2017-08-26T08:58:57.253Z,1013.24
2017-08-26T08:59:57.282Z,1013.26
2017-08-26T09:00:57.310Z,1013.23
2017-08-26T09:01:57.334Z,1013.17
2017-08-26T09:02:57.364Z,1013.24
2017-08-26T09:03:57.390Z,1013.24
2017-08-26T09:04:57.414Z,1013.23
2017-08-26T09:05:57.440Z,1013.26
2017-08-26T09:06:57.471Z,1013.24
2017-08-26T09:07:57.496Z,1013.23
2017-08-26T09:08:57.523Z,1013.28
2017-08-26T09:09:57.552Z,1013.21
2017-08-26T09:10:57.577Z,1013.22
2017-08-26T09:12:57.632Z,1013.24
2017-08-26T09:13:57.659Z,1013.18
2017-08-26T09:14:57.685Z,1013.18
2017-08-26T09:15:57.709Z,1013.23
2017-08-26T09:16:57.738Z,1013.2
2017-08-26T09:17:57.763Z,1013.16
2017-08-26T09:18:57.795Z,1013.14
2017-08-26T09:19:57.816Z,1013.14
2017-08-26T09:20:57.845Z,1013.17
2017-08-26T09:21:57.869Z,1013.19
2017-08-26T09:22:57.898Z,1013.2
2017-08-26T09:23:57.922Z,1013.18
2017-08-26T09:24:57.956Z,1013.2
2017-08-26T09:25:57.980Z,1013.21
2017-08-26T09:26:58.003Z,1013.14
2017-08-26T09:28:58.062Z,1013.17
2017-08-26T09:29:58.083Z,1013.22
2017-08-26T09:30:58.115Z,1013.21
2017-08-26T09:31:58.139Z,1013.2
2017-08-26T09:32:58.167Z,1013.14
2017-08-26T09:33:58.194Z,1013.12
2017-08-26T09:34:58.225Z,1013.16
2017-08-26T09:35:58.245Z,1013.15
2017-08-26T09:36:58.274Z,1013.13
2017-08-26T09:37:58.303Z,1013.14
2017-08-26T09:38:58.326Z,1013.14
2017-08-26T09:39:58.355Z,1013.15
2017-08-26T09:40:58.384Z,1013.16
2017-08-26T09:41:58.413Z,1013.17
2017-08-26T09:42:58.439Z,1013.17
2017-08-26T09:44:58.494Z,1013.19
2017-08-26T09:45:58.522Z,1013.19
2017-08-26T09:46:58.549Z,1013.19
2017-08-26T09:47:58.573Z,1013.17
2017-08-26T09:48:58.605Z,1013.15
2017-08-26T09:49:58.633Z,1013.15
2017-08-26T09:50:58.659Z,1013.13
2017-08-26T09:51:58.688Z,1013.15
2017-08-26T09:52:58.715Z,1013.09
2017-08-26T09:53:58.744Z,1013.09
2017-08-26T09:54:58.766Z,1013.05
2017-08-26T09:55:58.796Z,1013.06
2017-08-26T09:56:58.827Z,1013.06
2017-08-26T09:57:58.855Z,1013.06
2017-08-26T09:58:58.877Z,1013.08
2017-08-26T10:00:58.939Z,1013.03
2017-08-26T10:01:58.964Z,1013.04
2017-08-26T10:02:58.989Z,1013.02
2017-08-26T10:03:59.018Z,1013
2017-08-26T10:04:59.046Z,1013.01
2017-08-26T10:05:59.073Z,1013
2017-08-26T10:06:59.099Z,1013.03
2017-08-26T10:07:59.130Z,1013
2017-08-26T10:08:59.152Z,1013.01
2017-08-26T10:09:59.180Z,1012.97
2017-08-26T10:10:59.210Z,1013
2017-08-26T10:11:59.237Z,1013.01
2017-08-26T10:12:59.266Z,1012.96
2017-08-26T10:13:59.289Z,1012.97
2017-08-26T10:15:59.345Z,1012.94
2017-08-26T10:16:59.375Z,1012.92
2017-08-26T10:17:59.402Z,1012.91
2017-08-26T10:18:59.432Z,1012.93
2017-08-26T10:19:59.457Z,1012.9
2017-08-26T10:20:59.483Z,1012.91
2017-08-26T10:21:59.514Z,1012.87
2017-08-26T10:22:59.537Z,1012.89
2017-08-26T10:23:59.564Z,1012.88
2017-08-26T10:24:59.593Z,1012.82
2017-08-26T10:25:59.621Z,1012.87
2017-08-26T10:26:59.647Z,1012.84
2017-08-26T10:27:59.673Z,1012.83
2017-08-26T10:28:59.700Z,1012.84
2017-08-26T10:29:59.727Z,1012.8
2017-08-26T10:30:59.755Z,1012.79
2017-08-26T10:31:59.782Z,1012.79
2017-08-26T10:32:59.810Z,1012.83
2017-08-26T10:33:59.833Z,1012.8
2017-08-26T10:34:59.865Z,1012.82
2017-08-26T10:35:59.890Z,1012.79
2017-08-26T10:36:59.919Z,1012.83
2017-08-26T10:37:59.942Z,1012.79
2017-08-26T10:38:59.974Z,1012.83
2017-08-26T10:39:59.998Z,1012.81
2017-08-26T10:41:00.026Z,1012.83
2017-08-26T10:42:00.054Z,1012.8
2017-08-26T10:43:00.083Z,1012.77
2017-08-26T10:44:00.112Z,1012.83
2017-08-26T10:45:00.135Z,1012.79
2017-08-26T10:46:00.168Z,1012.77
2017-08-26T10:48:00.218Z,1012.74
2017-08-26T10:49:00.247Z,1012.77
2017-08-26T10:50:00.273Z,1012.72
2017-08-26T10:51:00.304Z,1012.69
2017-08-26T10:52:00.333Z,1012.67
2017-08-26T10:53:00.360Z,1012.62
2017-08-26T10:54:00.388Z,1012.64
2017-08-26T10:55:00.414Z,1012.67
2017-08-26T10:56:00.441Z,1012.61
2017-08-26T10:57:00.466Z,1012.57
2017-08-26T10:58:00.497Z,1012.55
2017-08-26T10:59:00.527Z,1012.57
2017-08-26T11:00:00.555Z,1012.59
2017-08-26T11:01:00.581Z,1012.62
2017-08-26T11:02:00.610Z,1012.57
2017-08-26T11:04:00.666Z,1012.59
2017-08-26T11:05:00.689Z,1012.55
2017-08-26T11:06:00.721Z,1012.58
2017-08-26T11:07:00.747Z,1012.53
2017-08-26T11:08:00.776Z,1012.56
2017-08-26T11:09:00.806Z,1012.55
2017-08-26T11:10:00.834Z,1012.55
2017-08-26T11:11:00.861Z,1012.58
2017-08-26T11:12:00.886Z,1012.56
2017-08-26T11:13:00.916Z,1012.53
2017-08-26T11:14:00.944Z,1012.52
2017-08-26T11:15:00.973Z,1012.47
2017-08-26T11:16:01.001Z,1012.47
2017-08-26T11:17:01.031Z,1012.43
2017-08-26T11:18:01.058Z,1012.41
2017-08-26T11:20:01.116Z,1012.33
2017-08-26T11:21:01.141Z,1012.26
2017-08-26T11:22:01.176Z,1012.29
2017-08-26T11:23:01.197Z,1012.28
2017-08-26T11:24:01.227Z,1012.26
2017-08-26T11:25:01.257Z,1012.25
2017-08-26T11:26:01.285Z,1012.25
2017-08-26T11:27:01.308Z,1012.27
2017-08-26T11:28:01.338Z,1012.25
2017-08-26T11:29:01.369Z,1012.25
2017-08-26T11:30:01.397Z,1012.24
2017-08-26T11:31:01.425Z,1012.27
2017-08-26T11:32:01.454Z,1012.26
2017-08-26T11:33:01.483Z,1012.28
2017-08-26T11:34:01.512Z,1012.25
2017-08-26T11:36:01.584Z,1012.32
2017-08-26T11:37:01.598Z,1012.29
2017-08-26T11:38:01.627Z,1012.29
2017-08-26T11:39:01.653Z,1012.3
2017-08-26T11:40:01.685Z,1012.25
2017-08-26T11:41:01.709Z,1012.23
2017-08-26T11:42:01.743Z,1012.22
2017-08-26T11:43:01.769Z,1012.18
2017-08-26T11:44:01.796Z,1012.18
2017-08-26T11:45:01.826Z,1012.12
2017-08-26T11:46:01.855Z,1012.11
2017-08-26T11:47:01.882Z,1012.11
2017-08-26T11:48:01.908Z,1012.08
2017-08-26T11:49:01.944Z,1012.08
2017-08-26T11:51:01.999Z,1012.04
2017-08-26T11:52:02.028Z,1012.02
2017-08-26T11:53:02.057Z,1011.97
2017-08-26T11:54:02.081Z,1011.92
2017-08-26T11:55:02.114Z,1011.88
2017-08-26T11:56:02.147Z,1011.88
2017-08-26T11:57:02.168Z,1011.83
2017-08-26T11:58:02.198Z,1011.83
2017-08-26T11:59:02.228Z,1011.86
2017-08-26T12:00:02.256Z,1011.84
2017-08-26T12:01:02.284Z,1011.78
2017-08-26T12:02:02.312Z,1011.75
2017-08-26T12:03:02.337Z,1011.73
2017-08-26T12:04:02.369Z,1011.65
2017-08-26T12:05:02.399Z,1011.64
2017-08-26T12:06:02.427Z,1011.65
2017-08-26T12:07:02.449Z,1011.63
2017-08-26T12:08:02.482Z,1011.62
2017-08-26T12:09:02.511Z,1011.62
2017-08-26T12:10:02.532Z,1011.65
2017-08-26T12:11:02.564Z,1011.69
2017-08-26T12:12:02.600Z,1011.66
2017-08-26T12:13:02.621Z,1011.66
2017-08-26T12:14:02.648Z,1011.66
2017-08-26T12:15:02.678Z,1011.69
2017-08-26T12:16:02.707Z,1011.74
2017-08-26T12:17:02.737Z,1011.72
2017-08-26T12:18:02.764Z,1011.72
2017-08-26T12:19:02.794Z,1011.71
2017-08-26T12:20:02.818Z,1011.72
2017-08-26T12:21:02.848Z,1011.71
2017-08-26T12:23:02.905Z,1011.65
2017-08-26T12:24:02.930Z,1011.64
2017-08-26T12:25:02.960Z,1011.61
2017-08-26T12:26:02.988Z,1011.61
2017-08-26T12:27:03.019Z,1011.61
2017-08-26T12:28:03.045Z,1011.59
2017-08-26T12:29:03.075Z,1011.56
2017-08-26T12:30:03.102Z,1011.56
2017-08-26T12:31:03.132Z,1011.6
2017-08-26T12:32:03.158Z,1011.62
2017-08-26T12:33:03.186Z,1011.64
2017-08-26T12:34:03.217Z,1011.67
2017-08-26T12:35:03.242Z,1011.7
2017-08-26T12:36:03.271Z,1011.66
2017-08-26T12:37:03.300Z,1011.65
2017-08-26T12:39:03.356Z,1011.6
2017-08-26T12:40:03.381Z,1011.62
2017-08-26T12:41:03.413Z,1011.58
2017-08-26T12:42:03.437Z,1011.55
2017-08-26T12:43:03.466Z,1011.58
2017-08-26T12:44:03.493Z,1011.6
2017-08-26T12:45:03.524Z,1011.55
2017-08-26T12:46:03.553Z,1011.64
2017-08-26T12:47:03.582Z,1011.57
2017-08-26T12:48:03.608Z,1011.59
2017-08-26T12:49:03.633Z,1011.63